sensor_id;sensor_type;location;lat;lon;timestamp;temperature;humidity
75621;DHT22;64574;48.506;-2.750;2023-06-14T00:01:38;17.50;78.20
75621;DHT22;64574;48.506;-2.750;2023-06-14T00:04:04;17.50;78.00
75621;DHT22;64574;48.506;-2.750;2023-06-14T00:06:34;17.50;78.10
75621;DHT22;64574;48.506;-2.750;2023-06-14T00:08:59;17.70;77.60
75621;DHT22;64574;48.506;-2.750;2023-06-14T00:11:25;17.60;77.30
75621;DHT22;64574;48.506;-2.750;2023-06-14T00:13:52;17.50;77.50
75621;DHT22;64574;48.506;-2.750;2023-06-14T00:16:18;17.40;77.90
75621;DHT22;64574;48.506;-2.750;2023-06-14T00:18:45;17.50;77.90
75621;DHT22;64574;48.506;-2.750;2023-06-14T00:21:11;17.50;77.70
75621;DHT22;64574;48.506;-2.750;2023-06-14T00:23:37;17.50;77.50
75621;DHT22;64574;48.506;-2.750;2023-06-14T00:26:03;17.40;77.70
75621;DHT22;64574;48.506;-2.750;2023-06-14T00:28:29;17.50;77.60
75621;DHT22;64574;48.506;-2.750;2023-06-14T00:30:54;17.50;76.80
75621;DHT22;64574;48.506;-2.750;2023-06-14T00:33:20;17.50;77.50
75621;DHT22;64574;48.506;-2.750;2023-06-14T00:35:46;17.50;77.10
75621;DHT22;64574;48.506;-2.750;2023-06-14T00:38:12;17.60;76.70
75621;DHT22;64574;48.506;-2.750;2023-06-14T00:40:38;17.20;77.90
75621;DHT22;64574;48.506;-2.750;2023-06-14T00:43:04;17.20;78.00
75621;DHT22;64574;48.506;-2.750;2023-06-14T00:45:30;17.20;78.00
75621;DHT22;64574;48.506;-2.750;2023-06-14T00:47:57;17.40;77.80
75621;DHT22;64574;48.506;-2.750;2023-06-14T00:50:23;17.40;77.60
75621;DHT22;64574;48.506;-2.750;2023-06-14T00:52:49;17.30;77.50
75621;DHT22;64574;48.506;-2.750;2023-06-14T00:55:15;17.30;77.50
75621;DHT22;64574;48.506;-2.750;2023-06-14T00:57:41;17.40;77.10
75621;DHT22;64574;48.506;-2.750;2023-06-14T01:00:07;17.40;77.10
75621;DHT22;64574;48.506;-2.750;2023-06-14T01:02:36;17.10;77.60
75621;DHT22;64574;48.506;-2.750;2023-06-14T01:05:03;17.10;77.50
75621;DHT22;64574;48.506;-2.750;2023-06-14T01:08:00;17.20;77.60
75621;DHT22;64574;48.506;-2.750;2023-06-14T01:15:30;17.20;77.20
75621;DHT22;64574;48.506;-2.750;2023-06-14T01:17:57;17.10;77.00
75621;DHT22;64574;48.506;-2.750;2023-06-14T01:20:29;16.90;77.90
75621;DHT22;64574;48.506;-2.750;2023-06-14T01:22:56;16.80;78.20
75621;DHT22;64574;48.506;-2.750;2023-06-14T01:25:22;16.80;78.50
75621;DHT22;64574;48.506;-2.750;2023-06-14T01:28:06;16.90;78.20
75621;DHT22;64574;48.506;-2.750;2023-06-14T01:30:41;17.00;77.60
75621;DHT22;64574;48.506;-2.750;2023-06-14T01:33:20;17.00;77.80
75621;DHT22;64574;48.506;-2.750;2023-06-14T01:35:51;16.90;77.50
75621;DHT22;64574;48.506;-2.750;2023-06-14T01:38:22;16.90;78.00
75621;DHT22;64574;48.506;-2.750;2023-06-14T01:40:49;16.80;78.10
75621;DHT22;64574;48.506;-2.750;2023-06-14T01:43:16;16.90;77.50
75621;DHT22;64574;48.506;-2.750;2023-06-14T01:45:42;16.90;77.60
75621;DHT22;64574;48.506;-2.750;2023-06-14T01:48:09;16.80;77.90
75621;DHT22;64574;48.506;-2.750;2023-06-14T01:50:35;16.80;78.00
75621;DHT22;64574;48.506;-2.750;2023-06-14T01:53:01;16.80;78.20
75621;DHT22;64574;48.506;-2.750;2023-06-14T01:55:27;16.70;78.20
75621;DHT22;64574;48.506;-2.750;2023-06-14T01:57:53;16.70;78.00
75621;DHT22;64574;48.506;-2.750;2023-06-14T02:00:19;16.60;78.00
75621;DHT22;64574;48.506;-2.750;2023-06-14T02:02:45;16.50;78.40
75621;DHT22;64574;48.506;-2.750;2023-06-14T02:05:14;16.50;78.80
75621;DHT22;64574;48.506;-2.750;2023-06-14T02:07:44;16.70;78.30
75621;DHT22;64574;48.506;-2.750;2023-06-14T02:10:10;16.80;77.30
75621;DHT22;64574;48.506;-2.750;2023-06-14T02:12:35;16.80;77.20
75621;DHT22;64574;48.506;-2.750;2023-06-14T02:15:01;16.60;77.50
75621;DHT22;64574;48.506;-2.750;2023-06-14T02:17:27;16.50;77.90
75621;DHT22;64574;48.506;-2.750;2023-06-14T02:19:52;16.60;77.80
75621;DHT22;64574;48.506;-2.750;2023-06-14T02:22:18;16.60;77.50
75621;DHT22;64574;48.506;-2.750;2023-06-14T02:24:45;16.60;77.60
75621;DHT22;64574;48.506;-2.750;2023-06-14T02:27:11;16.50;77.50
75621;DHT22;64574;48.506;-2.750;2023-06-14T02:29:37;16.60;77.50
75621;DHT22;64574;48.506;-2.750;2023-06-14T02:32:03;16.60;77.30
75621;DHT22;64574;48.506;-2.750;2023-06-14T02:34:29;16.50;77.50
75621;DHT22;64574;48.506;-2.750;2023-06-14T02:36:55;16.50;77.60
75621;DHT22;64574;48.506;-2.750;2023-06-14T02:39:21;16.10;78.70
75621;DHT22;64574;48.506;-2.750;2023-06-14T02:41:49;16.10;79.00
75621;DHT22;64574;48.506;-2.750;2023-06-14T02:44:15;16.30;78.60
75621;DHT22;64574;48.506;-2.750;2023-06-14T02:46:42;16.20;78.90
75621;DHT22;64574;48.506;-2.750;2023-06-14T02:49:09;16.10;79.10
75621;DHT22;64574;48.506;-2.750;2023-06-14T02:51:35;16.20;78.90
75621;DHT22;64574;48.506;-2.750;2023-06-14T02:54:00;16.40;78.20
75621;DHT22;64574;48.506;-2.750;2023-06-14T02:56:26;16.30;78.60
75621;DHT22;64574;48.506;-2.750;2023-06-14T02:58:52;16.10;79.00
75621;DHT22;64574;48.506;-2.750;2023-06-14T03:01:18;16.10;78.90
75621;DHT22;64574;48.506;-2.750;2023-06-14T03:03:46;16.10;79.10
75621;DHT22;64574;48.506;-2.750;2023-06-14T03:06:11;16.20;78.30
75621;DHT22;64574;48.506;-2.750;2023-06-14T03:08:40;16.10;78.60
75621;DHT22;64574;48.506;-2.750;2023-06-14T03:11:07;16.10;78.70
75621;DHT22;64574;48.506;-2.750;2023-06-14T03:13:35;16.10;78.70
75621;DHT22;64574;48.506;-2.750;2023-06-14T03:16:02;16.10;78.60
75621;DHT22;64574;48.506;-2.750;2023-06-14T03:18:29;16.00;78.90
75621;DHT22;64574;48.506;-2.750;2023-06-14T03:20:56;16.00;78.90
75621;DHT22;64574;48.506;-2.750;2023-06-14T03:23:24;16.00;79.00
75621;DHT22;64574;48.506;-2.750;2023-06-14T03:25:50;16.00;78.70
75621;DHT22;64574;48.506;-2.750;2023-06-14T03:28:17;16.00;79.00
75621;DHT22;64574;48.506;-2.750;2023-06-14T03:30:42;15.90;78.90
75621;DHT22;64574;48.506;-2.750;2023-06-14T03:33:08;15.80;78.90
75621;DHT22;64574;48.506;-2.750;2023-06-14T03:35:34;15.80;79.30
75621;DHT22;64574;48.506;-2.750;2023-06-14T03:37:59;16.00;78.80
75621;DHT22;64574;48.506;-2.750;2023-06-14T03:40:25;15.80;79.20
75621;DHT22;64574;48.506;-2.750;2023-06-14T03:42:52;15.80;79.20
75621;DHT22;64574;48.506;-2.750;2023-06-14T03:45:17;15.60;79.70
75621;DHT22;64574;48.506;-2.750;2023-06-14T03:47:43;15.60;79.70
75621;DHT22;64574;48.506;-2.750;2023-06-14T03:50:09;15.60;80.00
75621;DHT22;64574;48.506;-2.750;2023-06-14T03:52:35;15.60;79.80
75621;DHT22;64574;48.506;-2.750;2023-06-14T03:55:00;15.20;80.70
75621;DHT22;64574;48.506;-2.750;2023-06-14T03:57:26;15.30;81.00
75621;DHT22;64574;48.506;-2.750;2023-06-14T03:59:52;15.50;80.90
75621;DHT22;64574;48.506;-2.750;2023-06-14T04:02:17;15.60;79.80
75621;DHT22;64574;48.506;-2.750;2023-06-14T04:04:44;15.60;79.50
75621;DHT22;64574;48.506;-2.750;2023-06-14T04:07:14;15.60;79.20
75621;DHT22;64574;48.506;-2.750;2023-06-14T04:09:39;15.50;80.00
75621;DHT22;64574;48.506;-2.750;2023-06-14T04:12:06;15.50;79.90
75621;DHT22;64574;48.506;-2.750;2023-06-14T04:14:34;15.40;80.00
75621;DHT22;64574;48.506;-2.750;2023-06-14T04:17:00;15.50;80.10
75621;DHT22;64574;48.506;-2.750;2023-06-14T04:19:26;15.60;79.30
75621;DHT22;64574;48.506;-2.750;2023-06-14T04:21:52;15.60;79.50
75621;DHT22;64574;48.506;-2.750;2023-06-14T04:24:17;15.40;80.00
75621;DHT22;64574;48.506;-2.750;2023-06-14T04:26:44;15.40;80.00
75621;DHT22;64574;48.506;-2.750;2023-06-14T04:29:17;15.40;80.30
75621;DHT22;64574;48.506;-2.750;2023-06-14T04:31:45;15.30;80.00
75621;DHT22;64574;48.506;-2.750;2023-06-14T04:34:11;15.10;81.00
75621;DHT22;64574;48.506;-2.750;2023-06-14T04:36:45;15.20;80.70
75621;DHT22;64574;48.506;-2.750;2023-06-14T04:39:18;15.20;80.80
75621;DHT22;64574;48.506;-2.750;2023-06-14T04:41:44;15.20;80.90
75621;DHT22;64574;48.506;-2.750;2023-06-14T04:44:10;15.00;81.20
75621;DHT22;64574;48.506;-2.750;2023-06-14T04:46:38;15.00;81.60
75621;DHT22;64574;48.506;-2.750;2023-06-14T04:49:15;15.00;81.70
75621;DHT22;64574;48.506;-2.750;2023-06-14T04:51:41;15.00;81.80
75621;DHT22;64574;48.506;-2.750;2023-06-14T04:54:11;15.10;81.50
75621;DHT22;64574;48.506;-2.750;2023-06-14T04:56:42;15.30;81.10
75621;DHT22;64574;48.506;-2.750;2023-06-14T04:59:08;15.30;80.40
75621;DHT22;64574;48.506;-2.750;2023-06-14T05:01:34;15.40;80.30
75621;DHT22;64574;48.506;-2.750;2023-06-14T05:04:00;15.00;81.20
75621;DHT22;64574;48.506;-2.750;2023-06-14T05:06:26;15.10;80.90
75621;DHT22;64574;48.506;-2.750;2023-06-14T05:08:53;15.30;80.80
75621;DHT22;64574;48.506;-2.750;2023-06-14T05:11:19;15.40;80.30
75621;DHT22;64574;48.506;-2.750;2023-06-14T05:13:44;15.30;80.10
75621;DHT22;64574;48.506;-2.750;2023-06-14T05:16:11;15.30;80.50
75621;DHT22;64574;48.506;-2.750;2023-06-14T05:18:37;15.30;80.30
75621;DHT22;64574;48.506;-2.750;2023-06-14T05:21:03;15.40;80.30
75621;DHT22;64574;48.506;-2.750;2023-06-14T05:23:30;15.30;80.10
75621;DHT22;64574;48.506;-2.750;2023-06-14T05:25:56;15.30;80.20
75621;DHT22;64574;48.506;-2.750;2023-06-14T05:28:22;15.20;80.50
75621;DHT22;64574;48.506;-2.750;2023-06-14T05:30:48;15.30;80.50
75621;DHT22;64574;48.506;-2.750;2023-06-14T05:33:13;15.30;80.00
75621;DHT22;64574;48.506;-2.750;2023-06-14T05:35:39;15.40;80.30
75621;DHT22;64574;48.506;-2.750;2023-06-14T05:38:05;15.60;79.40
75621;DHT22;64574;48.506;-2.750;2023-06-14T05:40:31;15.80;78.70
75621;DHT22;64574;48.506;-2.750;2023-06-14T05:42:56;15.80;78.40
75621;DHT22;64574;48.506;-2.750;2023-06-14T05:45:22;15.80;77.60
75621;DHT22;64574;48.506;-2.750;2023-06-14T05:47:48;15.80;77.80
75621;DHT22;64574;48.506;-2.750;2023-06-14T05:50:14;15.80;78.20
75621;DHT22;64574;48.506;-2.750;2023-06-14T05:52:39;15.80;78.10
75621;DHT22;64574;48.506;-2.750;2023-06-14T05:55:05;15.80;78.00
75621;DHT22;64574;48.506;-2.750;2023-06-14T05:57:31;16.00;77.70
75621;DHT22;64574;48.506;-2.750;2023-06-14T05:59:57;15.80;77.20
75621;DHT22;64574;48.506;-2.750;2023-06-14T06:02:22;15.80;77.60
75621;DHT22;64574;48.506;-2.750;2023-06-14T06:04:48;16.00;77.30
75621;DHT22;64574;48.506;-2.750;2023-06-14T06:07:13;16.10;76.80
75621;DHT22;64574;48.506;-2.750;2023-06-14T06:09:39;16.10;76.80
75621;DHT22;64574;48.506;-2.750;2023-06-14T06:12:06;16.10;76.80
75621;DHT22;64574;48.506;-2.750;2023-06-14T06:14:32;16.00;77.10
75621;DHT22;64574;48.506;-2.750;2023-06-14T06:16:58;16.00;77.00
75621;DHT22;64574;48.506;-2.750;2023-06-14T06:19:24;16.10;77.10
75621;DHT22;64574;48.506;-2.750;2023-06-14T06:21:50;16.10;76.90
75621;DHT22;64574;48.506;-2.750;2023-06-14T06:24:16;16.20;76.60
75621;DHT22;64574;48.506;-2.750;2023-06-14T06:26:41;16.00;76.90
75621;DHT22;64574;48.506;-2.750;2023-06-14T06:29:07;16.10;77.20
75621;DHT22;64574;48.506;-2.750;2023-06-14T06:31:33;16.30;76.50
75621;DHT22;64574;48.506;-2.750;2023-06-14T06:33:58;16.40;76.60
75621;DHT22;64574;48.506;-2.750;2023-06-14T06:36:24;16.10;76.50
75621;DHT22;64574;48.506;-2.750;2023-06-14T06:38:50;16.40;76.60
75621;DHT22;64574;48.506;-2.750;2023-06-14T06:41:16;16.40;76.50
75621;DHT22;64574;48.506;-2.750;2023-06-14T06:43:42;16.50;76.10
75621;DHT22;64574;48.506;-2.750;2023-06-14T06:46:08;16.40;76.00
75621;DHT22;64574;48.506;-2.750;2023-06-14T06:48:33;16.40;76.40
75621;DHT22;64574;48.506;-2.750;2023-06-14T06:50:59;16.40;76.00
75621;DHT22;64574;48.506;-2.750;2023-06-14T06:53:25;16.40;76.10
75621;DHT22;64574;48.506;-2.750;2023-06-14T06:55:51;16.50;75.70
75621;DHT22;64574;48.506;-2.750;2023-06-14T06:58:17;16.60;75.60
75621;DHT22;64574;48.506;-2.750;2023-06-14T07:00:42;16.60;75.60
75621;DHT22;64574;48.506;-2.750;2023-06-14T07:03:08;16.60;75.50
75621;DHT22;64574;48.506;-2.750;2023-06-14T07:05:34;16.70;75.70
75621;DHT22;64574;48.506;-2.750;2023-06-14T07:08:00;16.80;75.20
75621;DHT22;64574;48.506;-2.750;2023-06-14T07:10:26;17.00;74.80
75621;DHT22;64574;48.506;-2.750;2023-06-14T07:12:51;17.00;74.80
75621;DHT22;64574;48.506;-2.750;2023-06-14T07:15:20;17.00;74.40
75621;DHT22;64574;48.506;-2.750;2023-06-14T07:17:46;17.20;74.50
75621;DHT22;64574;48.506;-2.750;2023-06-14T07:20:13;17.10;74.20
75621;DHT22;64574;48.506;-2.750;2023-06-14T07:22:39;17.10;73.90
75621;DHT22;64574;48.506;-2.750;2023-06-14T07:25:08;17.10;74.50
75621;DHT22;64574;48.506;-2.750;2023-06-14T07:27:34;17.20;74.40
75621;DHT22;64574;48.506;-2.750;2023-06-14T07:30:00;17.10;74.20
75621;DHT22;64574;48.506;-2.750;2023-06-14T07:32:25;17.20;74.10
75621;DHT22;64574;48.506;-2.750;2023-06-14T07:34:51;17.20;73.50
75621;DHT22;64574;48.506;-2.750;2023-06-14T07:37:17;17.20;73.20
75621;DHT22;64574;48.506;-2.750;2023-06-14T07:39:43;17.30;73.00
75621;DHT22;64574;48.506;-2.750;2023-06-14T07:42:09;17.40;73.20
75621;DHT22;64574;48.506;-2.750;2023-06-14T07:44:34;17.50;72.90
75621;DHT22;64574;48.506;-2.750;2023-06-14T07:47:00;17.50;72.10
75621;DHT22;64574;48.506;-2.750;2023-06-14T07:49:26;17.50;71.70
75621;DHT22;64574;48.506;-2.750;2023-06-14T07:51:52;17.60;71.50
75621;DHT22;64574;48.506;-2.750;2023-06-14T07:54:19;17.60;71.50
75621;DHT22;64574;48.506;-2.750;2023-06-14T07:56:50;17.60;71.60
75621;DHT22;64574;48.506;-2.750;2023-06-14T07:59:16;17.60;71.20
75621;DHT22;64574;48.506;-2.750;2023-06-14T08:01:43;17.60;70.90
75621;DHT22;64574;48.506;-2.750;2023-06-14T08:04:13;17.50;71.10
75621;DHT22;64574;48.506;-2.750;2023-06-14T08:06:39;17.60;70.40
75621;DHT22;64574;48.506;-2.750;2023-06-14T08:09:05;17.90;69.60
75621;DHT22;64574;48.506;-2.750;2023-06-14T08:11:31;18.00;68.70
75621;DHT22;64574;48.506;-2.750;2023-06-14T08:13:57;18.10;68.40
75621;DHT22;64574;48.506;-2.750;2023-06-14T08:16:22;18.20;67.60
75621;DHT22;64574;48.506;-2.750;2023-06-14T08:18:49;18.10;67.10
75621;DHT22;64574;48.506;-2.750;2023-06-14T08:21:14;18.10;67.10
75621;DHT22;64574;48.506;-2.750;2023-06-14T08:23:40;18.10;66.80
75621;DHT22;64574;48.506;-2.750;2023-06-14T08:26:09;17.90;67.20
75621;DHT22;64574;48.506;-2.750;2023-06-14T08:28:35;18.00;66.80
75621;DHT22;64574;48.506;-2.750;2023-06-14T08:31:00;18.00;66.80
75621;DHT22;64574;48.506;-2.750;2023-06-14T08:33:27;18.20;66.20
75621;DHT22;64574;48.506;-2.750;2023-06-14T08:35:53;18.20;66.60
75621;DHT22;64574;48.506;-2.750;2023-06-14T08:38:19;18.20;67.00
75621;DHT22;64574;48.506;-2.750;2023-06-14T08:40:47;18.20;67.20
75621;DHT22;64574;48.506;-2.750;2023-06-14T08:43:13;18.30;67.20
75621;DHT22;64574;48.506;-2.750;2023-06-14T08:45:39;18.30;67.30
75621;DHT22;64574;48.506;-2.750;2023-06-14T08:48:07;18.40;67.70
75621;DHT22;64574;48.506;-2.750;2023-06-14T08:50:34;18.50;67.20
75621;DHT22;64574;48.506;-2.750;2023-06-14T08:53:02;18.40;67.10
75621;DHT22;64574;48.506;-2.750;2023-06-14T08:55:29;18.50;67.00
75621;DHT22;64574;48.506;-2.750;2023-06-14T08:57:57;18.50;66.80
75621;DHT22;64574;48.506;-2.750;2023-06-14T09:00:25;18.50;66.60
75621;DHT22;64574;48.506;-2.750;2023-06-14T09:02:52;18.40;66.50
75621;DHT22;64574;48.506;-2.750;2023-06-14T09:05:24;18.60;66.80
75621;DHT22;64574;48.506;-2.750;2023-06-14T09:07:50;18.60;65.90
75621;DHT22;64574;48.506;-2.750;2023-06-14T09:10:16;18.60;66.50
75621;DHT22;64574;48.506;-2.750;2023-06-14T09:12:42;18.70;65.90
75621;DHT22;64574;48.506;-2.750;2023-06-14T09:15:08;18.60;65.60
75621;DHT22;64574;48.506;-2.750;2023-06-14T09:17:38;18.70;65.90
75621;DHT22;64574;48.506;-2.750;2023-06-14T09:20:08;18.80;65.20
75621;DHT22;64574;48.506;-2.750;2023-06-14T09:22:39;18.70;64.80
75621;DHT22;64574;48.506;-2.750;2023-06-14T09:25:05;18.70;65.00
75621;DHT22;64574;48.506;-2.750;2023-06-14T09:27:32;18.80;65.10
75621;DHT22;64574;48.506;-2.750;2023-06-14T09:29:58;18.90;64.60
75621;DHT22;64574;48.506;-2.750;2023-06-14T09:32:24;19.00;64.20
75621;DHT22;64574;48.506;-2.750;2023-06-14T09:34:50;19.00;64.10
75621;DHT22;64574;48.506;-2.750;2023-06-14T09:37:29;19.00;64.20
75621;DHT22;64574;48.506;-2.750;2023-06-14T09:39:55;19.00;64.10
75621;DHT22;64574;48.506;-2.750;2023-06-14T09:42:20;19.00;64.50
75621;DHT22;64574;48.506;-2.750;2023-06-14T09:44:49;19.10;64.30
75621;DHT22;64574;48.506;-2.750;2023-06-14T09:47:18;19.00;64.50
75621;DHT22;64574;48.506;-2.750;2023-06-14T09:49:44;19.10;64.70
75621;DHT22;64574;48.506;-2.750;2023-06-14T09:52:21;19.20;64.10
75621;DHT22;64574;48.506;-2.750;2023-06-14T09:54:48;19.20;64.70
75621;DHT22;64574;48.506;-2.750;2023-06-14T09:57:17;19.20;65.00
75621;DHT22;64574;48.506;-2.750;2023-06-14T09:59:46;19.30;64.70
75621;DHT22;64574;48.506;-2.750;2023-06-14T10:04:43;19.10;65.40
75621;DHT22;64574;48.506;-2.750;2023-06-14T10:07:17;19.10;65.50
75621;DHT22;64574;48.506;-2.750;2023-06-14T10:09:45;19.20;65.40
75621;DHT22;64574;48.506;-2.750;2023-06-14T10:12:16;19.30;65.50
75621;DHT22;64574;48.506;-2.750;2023-06-14T10:14:48;19.20;64.80
75621;DHT22;64574;48.506;-2.750;2023-06-14T10:17:43;19.10;65.90
75621;DHT22;64574;48.506;-2.750;2023-06-14T10:20:41;19.30;66.00
75621;DHT22;64574;48.506;-2.750;2023-06-14T10:23:10;19.40;65.60
75621;DHT22;64574;48.506;-2.750;2023-06-14T10:25:37;19.50;65.70
75621;DHT22;64574;48.506;-2.750;2023-06-14T10:30:37;19.60;65.70
75621;DHT22;64574;48.506;-2.750;2023-06-14T10:33:04;19.50;65.30
75621;DHT22;64574;48.506;-2.750;2023-06-14T10:35:31;19.60;66.00
75621;DHT22;64574;48.506;-2.750;2023-06-14T10:38:07;19.50;65.60
75621;DHT22;64574;48.506;-2.750;2023-06-14T10:40:33;19.50;65.80
75621;DHT22;64574;48.506;-2.750;2023-06-14T10:42:59;19.60;65.80
75621;DHT22;64574;48.506;-2.750;2023-06-14T10:45:25;19.70;65.50
75621;DHT22;64574;48.506;-2.750;2023-06-14T10:47:50;19.60;65.60
75621;DHT22;64574;48.506;-2.750;2023-06-14T10:50:27;19.70;65.00
75621;DHT22;64574;48.506;-2.750;2023-06-14T10:52:54;19.70;64.50
75621;DHT22;64574;48.506;-2.750;2023-06-14T10:55:22;19.70;64.20
75621;DHT22;64574;48.506;-2.750;2023-06-14T10:57:49;19.70;64.90
75621;DHT22;64574;48.506;-2.750;2023-06-14T11:00:29;19.70;64.40
75621;DHT22;64574;48.506;-2.750;2023-06-14T11:05:56;19.80;63.70
75621;DHT22;64574;48.506;-2.750;2023-06-14T11:10:50;19.80;64.00
75621;DHT22;64574;48.506;-2.750;2023-06-14T11:13:16;19.80;64.50
75621;DHT22;64574;48.506;-2.750;2023-06-14T11:15:47;19.90;64.40
75621;DHT22;64574;48.506;-2.750;2023-06-14T11:18:13;19.90;65.00
75621;DHT22;64574;48.506;-2.750;2023-06-14T11:20:40;20.00;64.80
75621;DHT22;64574;48.506;-2.750;2023-06-14T11:23:06;19.90;64.10
75621;DHT22;64574;48.506;-2.750;2023-06-14T11:25:32;19.90;64.40
75621;DHT22;64574;48.506;-2.750;2023-06-14T11:27:58;19.90;64.50
75621;DHT22;64574;48.506;-2.750;2023-06-14T11:30:25;19.90;65.10
75621;DHT22;64574;48.506;-2.750;2023-06-14T11:32:52;19.90;64.40
75621;DHT22;64574;48.506;-2.750;2023-06-14T11:35:21;20.00;64.50
75621;DHT22;64574;48.506;-2.750;2023-06-14T11:37:49;20.00;64.40
75621;DHT22;64574;48.506;-2.750;2023-06-14T11:40:18;20.00;64.60
75621;DHT22;64574;48.506;-2.750;2023-06-14T11:42:43;20.00;65.00
75621;DHT22;64574;48.506;-2.750;2023-06-14T11:45:11;20.00;65.00
75621;DHT22;64574;48.506;-2.750;2023-06-14T11:47:39;20.00;64.70
75621;DHT22;64574;48.506;-2.750;2023-06-14T11:50:09;20.00;64.30
75621;DHT22;64574;48.506;-2.750;2023-06-14T11:52:36;20.00;64.20
75621;DHT22;64574;48.506;-2.750;2023-06-14T11:55:03;19.70;63.40
75621;DHT22;64574;48.506;-2.750;2023-06-14T11:57:35;19.80;63.90
75621;DHT22;64574;48.506;-2.750;2023-06-14T12:00:07;19.90;63.50
75621;DHT22;64574;48.506;-2.750;2023-06-14T12:02:38;19.90;62.90
75621;DHT22;64574;48.506;-2.750;2023-06-14T12:05:05;19.90;62.50
75621;DHT22;64574;48.506;-2.750;2023-06-14T12:07:36;19.90;63.30
75621;DHT22;64574;48.506;-2.750;2023-06-14T12:12:35;20.00;62.10
75621;DHT22;64574;48.506;-2.750;2023-06-14T12:15:03;20.00;62.60
75621;DHT22;64574;48.506;-2.750;2023-06-14T12:17:32;20.00;62.10
75621;DHT22;64574;48.506;-2.750;2023-06-14T12:19:59;20.10;62.10
75621;DHT22;64574;48.506;-2.750;2023-06-14T12:22:24;20.00;62.30
75621;DHT22;64574;48.506;-2.750;2023-06-14T12:24:51;20.10;62.30
75621;DHT22;64574;48.506;-2.750;2023-06-14T12:27:21;20.10;61.30
75621;DHT22;64574;48.506;-2.750;2023-06-14T12:30:02;20.20;62.30
75621;DHT22;64574;48.506;-2.750;2023-06-14T12:32:29;20.30;61.90
75621;DHT22;64574;48.506;-2.750;2023-06-14T12:34:55;20.30;61.20
75621;DHT22;64574;48.506;-2.750;2023-06-14T12:37:21;20.30;61.50
75621;DHT22;64574;48.506;-2.750;2023-06-14T12:39:47;20.30;61.40
75621;DHT22;64574;48.506;-2.750;2023-06-14T12:42:13;20.30;61.80
75621;DHT22;64574;48.506;-2.750;2023-06-14T12:44:40;20.20;61.60
75621;DHT22;64574;48.506;-2.750;2023-06-14T12:47:07;20.30;61.30
75621;DHT22;64574;48.506;-2.750;2023-06-14T12:49:33;20.10;61.10
75621;DHT22;64574;48.506;-2.750;2023-06-14T12:51:59;20.10;62.00
75621;DHT22;64574;48.506;-2.750;2023-06-14T12:54:25;20.30;60.60
75621;DHT22;64574;48.506;-2.750;2023-06-14T12:56:51;20.20;62.20
75621;DHT22;64574;48.506;-2.750;2023-06-14T12:59:18;20.30;61.60
75621;DHT22;64574;48.506;-2.750;2023-06-14T13:01:44;20.30;61.90
75621;DHT22;64574;48.506;-2.750;2023-06-14T13:04:10;20.40;62.10
75621;DHT22;64574;48.506;-2.750;2023-06-14T13:06:36;20.40;62.20
75621;DHT22;64574;48.506;-2.750;2023-06-14T13:09:02;20.30;62.10
75621;DHT22;64574;48.506;-2.750;2023-06-14T13:11:29;20.30;62.20
75621;DHT22;64574;48.506;-2.750;2023-06-14T13:13:55;20.10;61.40
75621;DHT22;64574;48.506;-2.750;2023-06-14T13:16:21;20.20;61.80
75621;DHT22;64574;48.506;-2.750;2023-06-14T13:18:47;20.30;61.60
75621;DHT22;64574;48.506;-2.750;2023-06-14T13:21:13;20.30;61.50
75621;DHT22;64574;48.506;-2.750;2023-06-14T13:23:38;20.50;61.00
75621;DHT22;64574;48.506;-2.750;2023-06-14T13:26:04;20.40;60.90
75621;DHT22;64574;48.506;-2.750;2023-06-14T13:28:30;20.10;62.00
75621;DHT22;64574;48.506;-2.750;2023-06-14T13:30:57;20.40;61.40
75621;DHT22;64574;48.506;-2.750;2023-06-14T13:33:23;20.50;61.40
75621;DHT22;64574;48.506;-2.750;2023-06-14T13:35:50;20.40;61.40
75621;DHT22;64574;48.506;-2.750;2023-06-14T13:38:18;20.50;61.70
75621;DHT22;64574;48.506;-2.750;2023-06-14T13:40:44;20.50;61.20
75621;DHT22;64574;48.506;-2.750;2023-06-14T13:43:10;20.60;62.00
75621;DHT22;64574;48.506;-2.750;2023-06-14T13:45:35;20.60;61.50
75621;DHT22;64574;48.506;-2.750;2023-06-14T13:48:01;20.50;61.10
75621;DHT22;64574;48.506;-2.750;2023-06-14T13:50:27;20.60;61.50
75621;DHT22;64574;48.506;-2.750;2023-06-14T13:52:53;20.60;60.50
75621;DHT22;64574;48.506;-2.750;2023-06-14T13:55:18;20.70;60.90
75621;DHT22;64574;48.506;-2.750;2023-06-14T13:57:44;20.70;60.70
75621;DHT22;64574;48.506;-2.750;2023-06-14T14:00:11;20.80;60.80
75621;DHT22;64574;48.506;-2.750;2023-06-14T14:02:37;20.80;61.60
75621;DHT22;64574;48.506;-2.750;2023-06-14T14:05:02;20.80;61.10
75621;DHT22;64574;48.506;-2.750;2023-06-14T14:07:28;20.80;61.00
75621;DHT22;64574;48.506;-2.750;2023-06-14T14:09:55;20.90;60.50
75621;DHT22;64574;48.506;-2.750;2023-06-14T14:12:23;21.00;60.30
75621;DHT22;64574;48.506;-2.750;2023-06-14T14:14:48;20.90;59.70
75621;DHT22;64574;48.506;-2.750;2023-06-14T14:17:14;20.90;59.80
75621;DHT22;64574;48.506;-2.750;2023-06-14T14:19:40;20.90;60.20
75621;DHT22;64574;48.506;-2.750;2023-06-14T14:22:05;20.80;59.70
75621;DHT22;64574;48.506;-2.750;2023-06-14T14:24:31;21.00;59.80
75621;DHT22;64574;48.506;-2.750;2023-06-14T14:26:57;21.00;59.60
75621;DHT22;64574;48.506;-2.750;2023-06-14T14:29:25;21.10;58.60
75621;DHT22;64574;48.506;-2.750;2023-06-14T14:31:54;21.00;59.10
75621;DHT22;64574;48.506;-2.750;2023-06-14T14:34:20;21.10;59.40
75621;DHT22;64574;48.506;-2.750;2023-06-14T14:36:45;21.10;58.50
75621;DHT22;64574;48.506;-2.750;2023-06-14T14:39:11;20.90;58.00
75621;DHT22;64574;48.506;-2.750;2023-06-14T14:41:37;20.90;59.00
75621;DHT22;64574;48.506;-2.750;2023-06-14T14:44:04;20.90;59.00
75621;DHT22;64574;48.506;-2.750;2023-06-14T14:46:29;21.10;57.90
75621;DHT22;64574;48.506;-2.750;2023-06-14T14:48:55;21.10;58.00
75621;DHT22;64574;48.506;-2.750;2023-06-14T14:51:20;21.10;57.00
75621;DHT22;64574;48.506;-2.750;2023-06-14T14:53:46;21.10;58.50
75621;DHT22;64574;48.506;-2.750;2023-06-14T14:56:12;21.30;57.60
75621;DHT22;64574;48.506;-2.750;2023-06-14T14:58:38;21.10;57.80
75621;DHT22;64574;48.506;-2.750;2023-06-14T15:01:03;21.30;58.40
75621;DHT22;64574;48.506;-2.750;2023-06-14T15:03:31;21.40;57.90
75621;DHT22;64574;48.506;-2.750;2023-06-14T15:05:56;21.40;57.00
75621;DHT22;64574;48.506;-2.750;2023-06-14T15:08:22;21.40;55.90
75621;DHT22;64574;48.506;-2.750;2023-06-14T15:10:48;21.30;56.60
75621;DHT22;64574;48.506;-2.750;2023-06-14T15:13:13;21.40;57.40
75621;DHT22;64574;48.506;-2.750;2023-06-14T15:15:39;21.50;56.70
75621;DHT22;64574;48.506;-2.750;2023-06-14T15:18:05;21.40;55.00
75621;DHT22;64574;48.506;-2.750;2023-06-14T15:20:30;21.50;54.70
75621;DHT22;64574;48.506;-2.750;2023-06-14T15:22:56;21.40;53.10
75621;DHT22;64574;48.506;-2.750;2023-06-14T15:25:26;21.40;54.50
75621;DHT22;64574;48.506;-2.750;2023-06-14T15:27:51;21.50;54.00
75621;DHT22;64574;48.506;-2.750;2023-06-14T15:30:17;21.50;54.50
75621;DHT22;64574;48.506;-2.750;2023-06-14T15:32:42;21.50;53.60